sensor_id;sensor_type;location;lat;lon;timestamp;pressure;altitude;pressure_sealevel;temperature;humidity
56630;BME280;42502;40.732;-74.254;2022-09-20T00:00:21;100196.88;;;30.93;39.55
56630;BME280;42502;40.732;-74.254;2022-09-20T00:02:22;100200.59;;;30.90;39.34
56630;BME280;42502;40.732;-74.254;2022-09-20T00:04:23;100214.41;;;30.92;38.98
56630;BME280;42502;40.732;-74.254;2022-09-20T00:06:27;100208.72;;;30.92;38.94
56630;BME280;42502;40.732;-74.254;2022-09-20T00:08:28;100215.72;;;30.87;39.08
56630;BME280;42502;40.732;-74.254;2022-09-20T00:10:29;100229.91;;;30.91;39.27
56630;BME280;42502;40.732;-74.254;2022-09-20T00:12:31;100223.47;;;30.87;39.04
56630;BME280;42502;40.732;-74.254;2022-09-20T00:14:31;100224.63;;;30.89;39.38
56630;BME280;42502;40.732;-74.254;2022-09-20T00:16:35;100230.78;;;30.88;38.90
56630;BME280;42502;40.732;-74.254;2022-09-20T00:18:38;100231.56;;;30.88;39.30
56630;BME280;42502;40.732;-74.254;2022-09-20T00:20:47;100222.66;;;30.86;39.02
56630;BME280;42502;40.732;-74.254;2022-09-20T00:22:48;100217.75;;;30.87;39.38
56630;BME280;42502;40.732;-74.254;2022-09-20T00:24:51;100221.44;;;30.87;39.39
56630;BME280;42502;40.732;-74.254;2022-09-20T00:26:52;100219.03;;;30.86;39.03
56630;BME280;42502;40.732;-74.254;2022-09-20T00:28:56;100208.53;;;30.79;38.97
56630;BME280;42502;40.732;-74.254;2022-09-20T00:30:57;100216.59;;;30.84;38.83
56630;BME280;42502;40.732;-74.254;2022-09-20T00:32:58;100212.94;;;30.83;39.05
56630;BME280;42502;40.732;-74.254;2022-09-20T00:34:59;100215.00;;;30.83;39.20
56630;BME280;42502;40.732;-74.254;2022-09-20T00:37:12;100219.06;;;30.82;39.44
56630;BME280;42502;40.732;-74.254;2022-09-20T00:39:14;100221.13;;;30.81;38.82
56630;BME280;42502;40.732;-74.254;2022-09-20T00:41:15;100217.47;;;30.81;38.83
56630;BME280;42502;40.732;-74.254;2022-09-20T00:43:17;100215.88;;;30.80;38.79
56630;BME280;42502;40.732;-74.254;2022-09-20T00:45:23;100217.91;;;30.79;39.22
56630;BME280;42502;40.732;-74.254;2022-09-20T00:52:35;100225.66;;;30.79;38.88
56630;BME280;42502;40.732;-74.254;2022-09-20T00:54:36;100215.50;;;30.78;39.04
56630;BME280;42502;40.732;-74.254;2022-09-20T00:56:39;100206.66;;;30.72;38.99
56630;BME280;42502;40.732;-74.254;2022-09-20T00:59:00;100215.13;;;30.76;38.83
56630;BME280;42502;40.732;-74.254;2022-09-20T01:01:03;100216.38;;;30.75;38.62
56630;BME280;42502;40.732;-74.254;2022-09-20T01:03:08;100217.63;;;30.74;38.86
56630;BME280;42502;40.732;-74.254;2022-09-20T01:05:11;100211.13;;;30.73;38.75
56630;BME280;42502;40.732;-74.254;2022-09-20T01:07:16;100213.16;;;30.73;39.19
56630;BME280;42502;40.732;-74.254;2022-09-20T01:09:18;100201.81;;;30.69;38.71
56630;BME280;42502;40.732;-74.254;2022-09-20T01:11:19;100208.69;;;30.72;38.68
56630;BME280;42502;40.732;-74.254;2022-09-20T01:13:20;100200.16;;;30.72;39.14
56630;BME280;42502;40.732;-74.254;2022-09-20T01:15:22;100198.56;;;30.67;38.97
56630;BME280;42502;40.732;-74.254;2022-09-20T01:17:25;100195.00;;;30.63;38.85
56630;BME280;42502;40.732;-74.254;2022-09-20T01:19:33;100203.50;;;30.67;38.93
56630;BME280;42502;40.732;-74.254;2022-09-20T01:21:37;100206.34;;;30.67;38.74
56630;BME280;42502;40.732;-74.254;2022-09-20T01:28:20;100204.00;;;30.61;39.71
56630;BME280;42502;40.732;-74.254;2022-09-20T01:30:24;100208.81;;;30.64;39.83
56630;BME280;42502;40.732;-74.254;2022-09-20T01:32:34;100204.00;;;30.61;39.77
56630;BME280;42502;40.732;-74.254;2022-09-20T01:34:46;100207.22;;;30.63;39.82
56630;BME280;42502;40.732;-74.254;2022-09-20T01:46:32;100200.22;;;30.21;36.99
56630;BME280;42502;40.732;-74.254;2022-09-20T01:48:38;100196.88;;;30.02;36.61
56630;BME280;42502;40.732;-74.254;2022-09-20T02:04:57;100190.59;;;29.29;35.97
56630;BME280;42502;40.732;-74.254;2022-09-20T02:14:11;100185.38;;;28.89;37.04
56630;BME280;42502;40.732;-74.254;2022-09-20T02:16:29;100180.88;;;28.92;37.33
56630;BME280;42502;40.732;-74.254;2022-09-20T02:25:48;100192.53;;;29.01;38.35
56630;BME280;42502;40.732;-74.254;2022-09-20T02:28:11;100185.66;;;28.99;38.71
56630;BME280;42502;40.732;-74.254;2022-09-20T02:32:53;100207.47;;;29.09;39.57
56630;BME280;42502;40.732;-74.254;2022-09-20T02:39:41;100188.31;;;29.13;39.96
56630;BME280;42502;40.732;-74.254;2022-09-20T02:44:54;100196.00;;;29.16;40.34
56630;BME280;42502;40.732;-74.254;2022-09-20T02:49:47;100184.63;;;29.16;41.02
56630;BME280;42502;40.732;-74.254;2022-09-20T02:51:57;100190.72;;;29.18;40.93
56630;BME280;42502;40.732;-74.254;2022-09-20T02:54:25;100198.78;;;29.23;40.83
56630;BME280;42502;40.732;-74.254;2022-09-20T02:56:35;100196.72;;;29.28;41.47
56630;BME280;42502;40.732;-74.254;2022-09-20T02:58:59;100200.00;;;29.26;41.36
56630;BME280;42502;40.732;-74.254;2022-09-20T03:07:05;100195.03;;;29.30;41.70
56630;BME280;42502;40.732;-74.254;2022-09-20T03:17:48;100197.44;;;29.32;41.52
56630;BME280;42502;40.732;-74.254;2022-09-20T03:22:25;100194.59;;;29.32;41.80
56630;BME280;42502;40.732;-74.254;2022-09-20T03:29:14;100184.00;;;29.36;41.93
56630;BME280;42502;40.732;-74.254;2022-09-20T03:36:26;100185.22;;;29.35;41.17
56630;BME280;42502;40.732;-74.254;2022-09-20T03:38:41;100181.09;;;29.39;41.12
56630;BME280;42502;40.732;-74.254;2022-09-20T03:43:17;100178.25;;;29.39;41.12
56630;BME280;42502;40.732;-74.254;2022-09-20T03:55:09;100174.19;;;29.40;41.31
56630;BME280;42502;40.732;-74.254;2022-09-20T03:59:40;100179.00;;;29.44;41.52
56630;BME280;42502;40.732;-74.254;2022-09-20T04:20:47;100162.00;;;29.40;41.54
56630;BME280;42502;40.732;-74.254;2022-09-20T04:22:52;100170.09;;;29.41;41.34
56630;BME280;42502;40.732;-74.254;2022-09-20T04:25:11;100162.84;;;29.37;41.59
56630;BME280;42502;40.732;-74.254;2022-09-20T04:27:37;100167.28;;;29.38;41.46
56630;BME280;42502;40.732;-74.254;2022-09-20T04:29:40;100157.09;;;29.40;41.09
56630;BME280;42502;40.732;-74.254;2022-09-20T04:31:54;100152.63;;;29.39;41.40
56630;BME280;42502;40.732;-74.254;2022-09-20T04:33:58;100149.44;;;29.37;41.53
56630;BME280;42502;40.732;-74.254;2022-09-20T04:38:22;100157.97;;;29.37;41.11
56630;BME280;42502;40.732;-74.254;2022-09-20T04:50:27;100143.75;;;29.37;41.09
56630;BME280;42502;40.732;-74.254;2022-09-20T05:00:12;100148.22;;;29.35;40.79
56630;BME280;42502;40.732;-74.254;2022-09-20T05:14:50;100130.88;;;29.26;41.07
56630;BME280;42502;40.732;-74.254;2022-09-20T05:26:09;100154.78;;;29.32;40.63
56630;BME280;42502;40.732;-74.254;2022-09-20T05:30:48;100155.19;;;29.34;40.85
56630;BME280;42502;40.732;-74.254;2022-09-20T05:47:58;100156.88;;;29.28;40.87
56630;BME280;42502;40.732;-74.254;2022-09-20T05:59:38;100145.19;;;29.22;41.04
56630;BME280;42502;40.732;-74.254;2022-09-20T06:04:28;100146.38;;;29.24;41.08
56630;BME280;42502;40.732;-74.254;2022-09-20T06:09:27;100135.41;;;29.23;41.05
56630;BME280;42502;40.732;-74.254;2022-09-20T06:14:20;100143.13;;;29.22;41.07
56630;BME280;42502;40.732;-74.254;2022-09-20T06:18:56;100140.28;;;29.22;40.36
56630;BME280;42502;40.732;-74.254;2022-09-20T06:23:34;100144.38;;;29.21;40.50
56630;BME280;42502;40.732;-74.254;2022-09-20T06:25:52;100140.31;;;29.19;40.68
56630;BME280;42502;40.732;-74.254;2022-09-20T06:28:15;100147.22;;;29.18;40.58
56630;BME280;42502;40.732;-74.254;2022-09-20T06:30:26;100146.78;;;29.19;40.22
56630;BME280;42502;40.732;-74.254;2022-09-20T06:32:29;100147.66;;;29.16;40.45
56630;BME280;42502;40.732;-74.254;2022-09-20T06:34:30;100139.13;;;29.16;40.54
56630;BME280;42502;40.732;-74.254;2022-09-20T06:36:36;100135.13;;;29.14;40.40
56630;BME280;42502;40.732;-74.254;2022-09-20T06:41:27;100134.25;;;29.17;40.39
56630;BME280;42502;40.732;-74.254;2022-09-20T06:43:30;100129.44;;;29.14;40.68
56630;BME280;42502;40.732;-74.254;2022-09-20T06:45:31;100131.00;;;29.15;40.80
56630;BME280;42502;40.732;-74.254;2022-09-20T06:47:32;100127.81;;;29.13;40.41
56630;BME280;42502;40.732;-74.254;2022-09-20T06:49:33;100118.06;;;29.10;40.38
56630;BME280;42502;40.732;-74.254;2022-09-20T06:51:37;100126.97;;;29.12;40.78
56630;BME280;42502;40.732;-74.254;2022-09-20T06:53:39;100127.84;;;29.09;40.52
56630;BME280;42502;40.732;-74.254;2022-09-20T06:55:41;100110.84;;;29.05;40.53
56630;BME280;42502;40.732;-74.254;2022-09-20T06:57:42;100120.56;;;29.08;40.62
56630;BME280;42502;40.732;-74.254;2022-09-20T06:59:43;100127.41;;;29.11;40.39
56630;BME280;42502;40.732;-74.254;2022-09-20T07:01:45;100120.56;;;29.08;40.30
56630;BME280;42502;40.732;-74.254;2022-09-20T07:03:46;100120.91;;;29.10;40.72
56630;BME280;42502;40.732;-74.254;2022-09-20T07:05:47;100127.03;;;29.09;40.53
56630;BME280;42502;40.732;-74.254;2022-09-20T07:07:48;100125.84;;;29.06;40.27
56630;BME280;42502;40.732;-74.254;2022-09-20T07:09:49;100126.25;;;29.08;40.43
56630;BME280;42502;40.732;-74.254;2022-09-20T07:11:50;100111.31;;;29.00;40.36
56630;BME280;42502;40.732;-74.254;2022-09-20T07:13:55;100116.19;;;29.00;40.29
56630;BME280;42502;40.732;-74.254;2022-09-20T07:16:02;100123.00;;;29.06;40.71
56630;BME280;42502;40.732;-74.254;2022-09-20T07:18:04;100120.16;;;29.06;40.54
56630;BME280;42502;40.732;-74.254;2022-09-20T07:20:05;100116.53;;;29.05;40.51
56630;BME280;42502;40.732;-74.254;2022-09-20T07:22:06;100113.69;;;29.05;40.60
56630;BME280;42502;40.732;-74.254;2022-09-20T07:24:07;100108.84;;;29.02;40.27
56630;BME280;42502;40.732;-74.254;2022-09-20T07:26:23;100113.72;;;29.02;40.54
56630;BME280;42502;40.732;-74.254;2022-09-20T07:28:27;100106.78;;;29.03;40.42
56630;BME280;42502;40.732;-74.254;2022-09-20T07:30:28;100102.78;;;29.00;40.11
56630;BME280;42502;40.732;-74.254;2022-09-20T07:32:29;100103.16;;;29.02;40.33
56630;BME280;42502;40.732;-74.254;2022-09-20T07:34:29;100113.72;;;29.02;40.69
56630;BME280;42502;40.732;-74.254;2022-09-20T07:36:31;100108.91;;;28.99;40.28
56630;BME280;42502;40.732;-74.254;2022-09-20T07:38:32;100106.50;;;28.97;40.22
56630;BME280;42502;40.732;-74.254;2022-09-20T07:40:33;100108.50;;;28.97;40.59
56630;BME280;42502;40.732;-74.254;2022-09-20T07:42:33;100115.38;;;28.99;40.84
56630;BME280;42502;40.732;-74.254;2022-09-20T07:44:34;100121.06;;;28.99;40.80
56630;BME280;42502;40.732;-74.254;2022-09-20T07:46:35;100111.75;;;28.99;40.32
56630;BME280;42502;40.732;-74.254;2022-09-20T07:48:39;100108.91;;;28.99;40.42
56630;BME280;42502;40.732;-74.254;2022-09-20T07:50:49;100105.28;;;28.95;40.58
56630;BME280;42502;40.732;-74.254;2022-09-20T07:52:50;100103.22;;;28.99;40.67
56630;BME280;42502;40.732;-74.254;2022-09-20T07:54:51;100102.38;;;28.98;40.85
56630;BME280;42502;40.732;-74.254;2022-09-20T07:56:52;100104.88;;;28.96;40.31
56630;BME280;42502;40.732;-74.254;2022-09-20T07:58:53;100102.81;;;28.97;40.43
56630;BME280;42502;40.732;-74.254;2022-09-20T08:00:55;100106.91;;;28.96;40.34
56630;BME280;42502;40.732;-74.254;2022-09-20T08:02:57;100114.19;;;28.97;40.61
56630;BME280;42502;40.732;-74.254;2022-09-20T08:04:58;100105.38;;;28.87;40.61
56630;BME280;42502;40.732;-74.254;2022-09-20T08:06:59;100111.03;;;28.91;40.26
56630;BME280;42502;40.732;-74.254;2022-09-20T08:09:01;100116.66;;;28.95;40.42
56630;BME280;42502;40.732;-74.254;2022-09-20T08:11:16;100113.47;;;28.89;40.49
56630;BME280;42502;40.732;-74.254;2022-09-20T08:13:17;100120.72;;;28.94;40.52
56630;BME280;42502;40.732;-74.254;2022-09-20T08:15:18;100119.56;;;28.91;40.43
56630;BME280;42502;40.732;-74.254;2022-09-20T08:17:18;100118.31;;;28.92;40.70
56630;BME280;42502;40.732;-74.254;2022-09-20T08:19:21;100103.38;;;28.84;40.24
56630;BME280;42502;40.732;-74.254;2022-09-20T08:21:24;100107.00;;;28.88;40.67
56630;BME280;42502;40.732;-74.254;2022-09-20T08:23:25;100098.09;;;28.86;40.63
56630;BME280;42502;40.732;-74.254;2022-09-20T08:25:26;100108.63;;;28.89;40.55
56630;BME280;42502;40.732;-74.254;2022-09-20T08:27:27;100104.59;;;28.87;40.62
56630;BME280;42502;40.732;-74.254;2022-09-20T08:29:27;100109.84;;;28.88;40.53
56630;BME280;42502;40.732;-74.254;2022-09-20T08:31:29;100109.84;;;28.88;40.39
56630;BME280;42502;40.732;-74.254;2022-09-20T08:33:34;100111.88;;;28.88;40.83
56630;BME280;42502;40.732;-74.254;2022-09-20T08:35:37;100101.03;;;28.79;40.58
56630;BME280;42502;40.732;-74.254;2022-09-20T08:37:37;100111.13;;;28.84;40.71
56630;BME280;42502;40.732;-74.254;2022-09-20T08:39:38;100116.84;;;28.80;40.43
56630;BME280;42502;40.732;-74.254;2022-09-20T08:41:47;100135.91;;;28.83;40.53
56630;BME280;42502;40.732;-74.254;2022-09-20T08:43:57;100131.03;;;28.84;40.30
56630;BME280;42502;40.732;-74.254;2022-09-20T08:46:02;100131.44;;;28.82;40.23
56630;BME280;42502;40.732;-74.254;2022-09-20T08:48:11;100142.81;;;28.82;40.51
56630;BME280;42502;40.732;-74.254;2022-09-20T08:50:15;100135.56;;;28.78;40.36
56630;BME280;42502;40.732;-74.254;2022-09-20T08:52:28;100145.69;;;28.79;40.53
56630;BME280;42502;40.732;-74.254;2022-09-20T08:54:31;100149.72;;;28.81;40.36
56630;BME280;42502;40.732;-74.254;2022-09-20T08:56:36;100147.34;;;28.76;40.48
56630;BME280;42502;40.732;-74.254;2022-09-20T08:58:37;100161.53;;;28.80;40.60
56630;BME280;42502;40.732;-74.254;2022-09-20T09:00:39;100157.06;;;28.79;40.34
56630;BME280;42502;40.732;-74.254;2022-09-20T09:02:44;100142.97;;;28.68;40.32
56630;BME280;42502;40.732;-74.254;2022-09-20T09:04:46;100149.00;;;28.74;40.30
56630;BME280;42502;40.732;-74.254;2022-09-20T09:06:48;100160.31;;;28.77;40.62
56630;BME280;42502;40.732;-74.254;2022-09-20T09:08:50;100154.31;;;28.71;40.48
56630;BME280;42502;40.732;-74.254;2022-09-20T09:10:55;100165.63;;;28.75;40.56
56630;BME280;42502;40.732;-74.254;2022-09-20T09:12:57;100172.13;;;28.76;39.99
56630;BME280;42502;40.732;-74.254;2022-09-20T09:15:19;100167.69;;;28.75;40.63
56630;BME280;42502;40.732;-74.254;2022-09-20T09:17:27;100160.75;;;28.76;40.55
56630;BME280;42502;40.732;-74.254;2022-09-20T09:19:30;100158.81;;;28.69;40.54
56630;BME280;42502;40.732;-74.254;2022-09-20T09:21:32;100154.34;;;28.68;40.54
56630;BME280;42502;40.732;-74.254;2022-09-20T09:23:46;100167.69;;;28.71;40.33
56630;BME280;42502;40.732;-74.254;2022-09-20T09:25:49;100164.44;;;28.73;39.97
56630;BME280;42502;40.732;-74.254;2022-09-20T09:27:55;100163.28;;;28.70;40.51
56630;BME280;42502;40.732;-74.254;2022-09-20T09:29:56;100164.06;;;28.70;40.59
56630;BME280;42502;40.732;-74.254;2022-09-20T09:32:17;100134.63;;;28.50;40.09
56630;BME280;42502;40.732;-74.254;2022-09-20T09:34:26;100172.22;;;28.68;40.45
56630;BME280;42502;40.732;-74.254;2022-09-20T09:36:27;100166.53;;;28.68;39.96
56630;BME280;42502;40.732;-74.254;2022-09-20T09:38:34;100169.81;;;28.67;40.52
56630;BME280;42502;40.732;-74.254;2022-09-20T09:40:35;100159.31;;;28.60;40.08
56630;BME280;42502;40.732;-74.254;2022-09-20T09:42:36;100168.22;;;28.62;40.50
56630;BME280;42502;40.732;-74.254;2022-09-20T09:44:37;100163.38;;;28.59;40.48
56630;BME280;42502;40.732;-74.254;2022-09-20T09:46:38;100158.88;;;28.62;40.39
56630;BME280;42502;40.732;-74.254;2022-09-20T09:48:42;100171.44;;;28.64;40.00
56630;BME280;42502;40.732;-74.254;2022-09-20T09:50:49;100167.81;;;28.60;40.42
56630;BME280;42502;40.732;-74.254;2022-09-20T09:53:07;100175.50;;;28.63;40.13
56630;BME280;42502;40.732;-74.254;2022-09-20T09:55:12;100159.31;;;28.57;40.25
56630;BME280;42502;40.732;-74.254;2022-09-20T09:59:50;100174.34;;;28.61;39.96
56630;BME280;42502;40.732;-74.254;2022-09-20T10:06:35;100183.69;;;28.58;40.38
56630;BME280;42502;40.732;-74.254;2022-09-20T10:11:01;100188.09;;;28.59;39.97
56630;BME280;42502;40.732;-74.254;2022-09-20T10:15:55;100184.53;;;28.54;40.32
56630;BME280;42502;40.732;-74.254;2022-09-20T10:18:20;100191.00;;;28.55;40.05
56630;BME280;42502;40.732;-74.254;2022-09-20T10:23:04;100192.63;;;28.52;40.09
56630;BME280;42502;40.732;-74.254;2022-09-20T10:30:17;100199.16;;;28.53;39.95
56630;BME280;42502;40.732;-74.254;2022-09-20T10:35:03;100197.53;;;28.48;40.24
56630;BME280;42502;40.732;-74.254;2022-09-20T10:37:18;100192.69;;;28.45;40.28
56630;BME280;42502;40.732;-74.254;2022-09-20T10:48:45;100197.63;;;28.41;40.03
56630;BME280;42502;40.732;-74.254;2022-09-20T10:53:25;100208.53;;;28.46;40.08
56630;BME280;42502;40.732;-74.254;2022-09-20T11:03:25;100219.13;;;28.42;40.29
56630;BME280;42502;40.732;-74.254;2022-09-20T11:10:11;100217.94;;;28.36;39.84
56630;BME280;42502;40.732;-74.254;2022-09-20T11:12:36;100227.72;;;28.35;40.04
56630;BME280;42502;40.732;-74.254;2022-09-20T11:14:51;100246.34;;;28.40;40.25
56630;BME280;42502;40.732;-74.254;2022-09-20T11:22:37;100252.44;;;28.38;39.95
56630;BME280;42502;40.732;-74.254;2022-09-20T11:26:40;100237.09;;;28.32;40.08
56630;BME280;42502;40.732;-74.254;2022-09-20T11:28:49;100245.16;;;28.37;40.22
56630;BME280;42502;40.732;-74.254;2022-09-20T11:33:21;100249.63;;;28.34;40.70
56630;BME280;42502;40.732;-74.254;2022-09-20T11:35:41;100254.50;;;28.34;40.42
56630;BME280;42502;40.732;-74.254;2022-09-20T11:37:55;100239.53;;;28.30;40.47
56630;BME280;42502;40.732;-74.254;2022-09-20T11:40:00;100245.19;;;28.30;40.78
56630;BME280;42502;40.732;-74.254;2022-09-20T11:42:04;100259.38;;;28.33;41.07
56630;BME280;42502;40.732;-74.254;2022-09-20T11:44:10;100262.66;;;28.32;42.44
56630;BME280;42502;40.732;-74.254;2022-09-20T11:46:18;100260.56;;;28.36;43.66
56630;BME280;42502;40.732;-74.254;2022-09-20T11:48:34;100257.72;;;28.36;43.32
56630;BME280;42502;40.732;-74.254;2022-09-20T11:58:02;100264.19;;;28.40;42.19
56630;BME280;42502;40.732;-74.254;2022-09-20T12:00:05;100270.28;;;28.39;42.30
56630;BME280;42502;40.732;-74.254;2022-09-20T12:02:22;100267.50;;;28.35;41.85
56630;BME280;42502;40.732;-74.254;2022-09-20T12:04:29;100264.25;;;28.33;41.51
56630;BME280;42502;40.732;-74.254;2022-09-20T12:06:33;100276.44;;;28.33;41.55
56630;BME280;42502;40.732;-74.254;2022-09-20T12:08:37;100265.88;;;28.34;41.07
56630;BME280;42502;40.732;-74.254;2022-09-20T12:10:39;100278.06;;;28.31;41.44
56630;BME280;42502;40.732;-74.254;2022-09-20T12:12:42;100279.69;;;28.32;41.22
56630;BME280;42502;40.732;-74.254;2022-09-20T12:14:55;100277.28;;;28.27;41.31
56630;BME280;42502;40.732;-74.254;2022-09-20T12:16:57;100284.97;;;28.30;41.11
56630;BME280;42502;40.732;-74.254;2022-09-20T12:21:10;100269.19;;;28.25;40.93
56630;BME280;42502;40.732;-74.254;2022-09-20T12:25:51;100277.69;;;28.29;40.67
56630;BME280;42502;40.732;-74.254;2022-09-20T12:27:59;100283.78;;;28.27;40.48
56630;BME280;42502;40.732;-74.254;2022-09-20T12:30:20;100281.38;;;28.26;40.54
56630;BME280;42502;40.732;-74.254;2022-09-20T12:32:41;100285.41;;;28.25;40.89
56630;BME280;42502;40.732;-74.254;2022-09-20T12:34:42;100280.13;;;28.27;40.80
56630;BME280;42502;40.732;-74.254;2022-09-20T12:39:02;100283.41;;;28.22;40.54
56630;BME280;42502;40.732;-74.254;2022-09-20T12:41:14;100287.47;;;28.21;40.23
56630;BME280;42502;40.732;-74.254;2022-09-20T12:43:18;100291.50;;;28.23;40.54
56630;BME280;42502;40.732;-74.254;2022-09-20T12:45:21;100284.22;;;28.22;40.19
56630;BME280;42502;40.732;-74.254;2022-09-20T12:47:25;100289.09;;;28.22;40.18
56630;BME280;42502;40.732;-74.254;2022-09-20T12:51:49;100284.63;;;28.21;40.25
56630;BME280;42502;40.732;-74.254;2022-09-20T12:54:10;100293.97;;;28.21;40.70
56630;BME280;42502;40.732;-74.254;2022-09-20T12:56:15;100287.09;;;28.18;39.91
56630;BME280;42502;40.732;-74.254;2022-09-20T13:04:53;100289.94;;;28.18;40.37
56630;BME280;42502;40.732;-74.254;2022-09-20T13:07:33;100289.53;;;28.16;40.30
56630;BME280;42502;40.732;-74.254;2022-09-20T13:09:35;100287.09;;;28.18;39.84
56630;BME280;42502;40.732;-74.254;2022-09-20T13:11:54;100280.63;;;28.14;40.01
56630;BME280;42502;40.732;-74.254;2022-09-20T13:16:05;100283.84;;;28.16;40.16
56630;BME280;42502;40.732;-74.254;2022-09-20T13:18:11;100275.34;;;28.13;40.29
56630;BME280;42502;40.732;-74.254;2022-09-20T13:20:26;100282.25;;;28.15;40.19
56630;BME280;42502;40.732;-74.254;2022-09-20T13:22:38;100279.41;;;28.15;40.06
56630;BME280;42502;40.732;-74.254;2022-09-20T13:24:45;100284.66;;;28.17;40.22
56630;BME280;42502;40.732;-74.254;2022-09-20T13:26:48;100290.75;;;28.15;39.94
56630;BME280;42502;40.732;-74.254;2022-09-20T13:28:52;100281.44;;;28.11;39.97
56630;BME280;42502;40.732;-74.254;2022-09-20T13:33:22;100286.69;;;28.16;40.05
56630;BME280;42502;40.732;-74.254;2022-09-20T13:35:27;100291.56;;;28.16;39.70
56630;BME280;42502;40.732;-74.254;2022-09-20T13:37:31;100279.00;;;28.13;39.51
56630;BME280;42502;40.732;-74.254;2022-09-20T13:39:35;100292.78;;;28.15;40.08
56630;BME280;42502;40.732;-74.254;2022-09-20T13:41:36;100293.59;;;28.15;39.78
56630;BME280;42502;40.732;-74.254;2022-09-20T13:45:41;100277.81;;;28.07;40.13
56630;BME280;42502;40.732;-74.254;2022-09-20T13:47:43;100273.81;;;28.05;40.03
56630;BME280;42502;40.732;-74.254;2022-09-20T13:49:47;100303.34;;;28.14;40.11
56630;BME280;42502;40.732;-74.254;2022-09-20T13:51:49;100293.59;;;28.15;39.52
56630;BME280;42502;40.732;-74.254;2022-09-20T13:53:50;100288.75;;;28.12;39.99
56630;BME280;42502;40.732;-74.254;2022-09-20T13:55:52;100289.56;;;28.13;39.78
56630;BME280;42502;40.732;-74.254;2022-09-20T13:57:58;100288.34;;;28.10;39.76
56630;BME280;42502;40.732;-74.254;2022-09-20T13:59:59;100310.63;;;28.15;39.98
56630;BME280;42502;40.732;-74.254;2022-09-20T14:02:01;100306.19;;;28.14;39.97
56630;BME280;42502;40.732;-74.254;2022-09-20T14:04:23;100306.19;;;28.14;40.07
56630;BME280;42502;40.732;-74.254;2022-09-20T14:06:25;100301.72;;;28.13;39.68
56630;BME280;42502;40.732;-74.254;2022-09-20T14:08:34;100304.53;;;28.17;39.50
56630;BME280;42502;40.732;-74.254;2022-09-20T14:10:37;100303.31;;;28.18;39.45
56630;BME280;42502;40.732;-74.254;2022-09-20T14:12:42;100308.19;;;28.17;39.97
56630;BME280;42502;40.732;-74.254;2022-09-20T14:14:45;100308.19;;;28.17;39.79
56630;BME280;42502;40.732;-74.254;2022-09-20T14:16:46;100306.56;;;28.16;39.59
56630;BME280;42502;40.732;-74.254;2022-09-20T14:18:48;100303.34;;;28.14;39.41
56630;BME280;42502;40.732;-74.254;2022-09-20T14:20:50;100302.91;;;28.16;39.42
56630;BME280;42502;40.732;-74.254;2022-09-20T14:22:52;100298.44;;;28.18;39.63
56630;BME280;42502;40.732;-74.254;2022-09-20T14:25:16;100305.72;;;28.19;39.54
56630;BME280;42502;40.732;-74.254;2022-09-20T14:27:19;100301.28;;;28.18;39.45
56630;BME280;42502;40.732;-74.254;2022-09-20T14:31:33;100302.88;;;28.19;39.25
56630;BME280;42502;40.732;-74.254;2022-09-20T14:33:40;100300.03;;;28.23;39.24
56630;BME280;42502;40.732;-74.254;2022-09-20T14:36:00;100289.09;;;28.18;39.26
56630;BME280;42502;40.732;-74.254;2022-09-20T14:38:07;100287.50;;;28.17;39.27
56630;BME280;42502;40.732;-74.254;2022-09-20T14:40:22;100288.69;;;28.23;39.18
56630;BME280;42502;40.732;-74.254;2022-09-20T14:42:28;100291.91;;;28.25;39.33
56630;BME280;42502;40.732;-74.254;2022-09-20T14:44:33;100291.09;;;28.25;38.99
56630;BME280;42502;40.732;-74.254;2022-09-20T14:46:36;100294.34;;;28.23;39.46
56630;BME280;42502;40.732;-74.254;2022-09-20T14:48:39;100295.94;;;28.28;39.63
56630;BME280;42502;40.732;-74.254;2022-09-20T14:50:43;100295.16;;;28.27;39.55
56630;BME280;42502;40.732;-74.254;2022-09-20T14:52:45;100277.75;;;28.22;39.20
56630;BME280;42502;40.732;-74.254;2022-09-20T14:54:57;100287.44;;;28.28;39.64
56630;BME280;42502;40.732;-74.254;2022-09-20T14:56:59;100276.91;;;28.25;39.00
56630;BME280;42502;40.732;-74.254;2022-09-20T15:01:24;100282.13;;;28.30;39.43
56630;BME280;42502;40.732;-74.254;2022-09-20T15:03:35;100289.00;;;28.32;39.59
56630;BME280;42502;40.732;-74.254;2022-09-20T15:05:37;100274.03;;;28.28;39.02
56630;BME280;42502;40.732;-74.254;2022-09-20T15:07:42;100285.34;;;28.35;39.36
56630;BME280;42502;40.732;-74.254;2022-09-20T15:09:45;100271.16;;;28.32;39.40
56630;BME280;42502;40.732;-74.254;2022-09-20T15:11:57;100279.66;;;28.35;39.41
56630;BME280;42502;40.732;-74.254;2022-09-20T15:13:58;100278.81;;;28.39;39.13
56630;BME280;42502;40.732;-74.254;2022-09-20T15:15:59;100270.28;;;28.39;39.42
56630;BME280;42502;40.732;-74.254;2022-09-20T15:18:03;100268.25;;;28.39;38.81
56630;BME280;42502;40.732;-74.254;2022-09-20T15:20:05;100269.88;;;28.40;39.38
56630;BME280;42502;40.732;-74.254;2022-09-20T15:22:08;100262.16;;;28.41;39.54
56630;BME280;42502;40.732;-74.254;2022-09-20T15:24:09;100275.50;;;28.44;39.25
56630;BME280;42502;40.732;-74.254;2022-09-20T15:26:11;100256.88;;;28.39;39.22
56630;BME280;42502;40.732;-74.254;2022-09-20T15:28:14;100264.56;;;28.46;39.10
56630;BME280;42502;40.732;-74.254;2022-09-20T15:30:21;100259.28;;;28.44;39.51
56630;BME280;42502;40.732;-74.254;2022-09-20T15:32:22;100265.72;;;28.48;39.53
56630;BME280;42502;40.732;-74.254;2022-09-20T15:34:23;100260.88;;;28.49;39.43
56630;BME280;42502;40.732;-74.254;2022-09-20T15:36:24;100262.47;;;28.50;39.02
56630;BME280;42502;40.732;-74.254;2022-09-20T15:38:31;100243.03;;;28.45;39.36